Terminal Aerodrome Forecast
Issued by NWS Mt. Holly, NJ

Home | Current Version | Previous Version | Text Only | Print | Product List | Glossary On
Versions: 1 2 3 4 5 6 7 8 9 10 11 12 13 14 15 16 17 18 19 20 21 22 23 24 25
607
FTUS41 KPHI 212322
TAFACY
TAF
KACY 212322Z 2200/2224 24004KT P6SM OVC004
     FM220500 VRB02KT 2SM BR VV002
     FM220800 VRB02KT 1SM -RA BR OVC002
     FM221200 05005KT 1SM BR OVC004
     FM221600 05010KT 2SM BR OVC005
     FM222200 05015KT 1SM -RA BR OVC002=

USA.gov is the U.S. government's official web portal to all federal, state and local government web resources and services.